Change the Weather History Date:

Monday, November 4, 2013

  Actual Average (KMSN) Record (KMSN)
Temperature  
Mean Temperature 48 °F 42 °F  
Max Temperature 53 °F 51 °F 72 °F (2008)
Min Temperature 42 °F 33 °F 8 °F (1951)
Degree Days  
Heating Degree Days 18 23  
Month to date heating degree days 90  
Since 1 July heating degree days 803  
Cooling Degree Days 0 0  
Month to date cooling degree days 0  
Year to date cooling degree days 568  
Moisture  
Dew Point 38 °F    
Average Humidity 65    
Maximum Humidity 89    
Minimum Humidity 54    
Precipitation  
Precipitation 0.00 in 0.08 in 1.61 in (2003)
Month to date precipitation 0.33  
Year to date precipitation 30.68  
Snow  
Snow 0.00 in 0.10 in 0.70 in (1884)
Month to date snowfall 0.2  
Since 1 July snowfall 0.7  
Since 1 September snowfall 0.7  
Snow Depth -    
Sea Level Pressure  
Sea Level Pressure 30.10 in    
Wind  
Wind Speed 11 mph (South)    
Max Wind Speed 23 mph    
Max Gust Speed 29 mph    
Visibility 10 miles    
Events      
T = Trace of Precipitation, MM = Missing Value Source: NWS Daily Summary

Daily Weather History Graph

Daily Weather History Graph

Search for Another Location

Airport or City:

Trip Planner

Search our weather history database for the weather conditions in past years. The results will help you decide how hot, cold, wet, or windy it might be!

Date:

Astronomy

Nov. 04, 2013 Rise Set
Actual Time 6:37 AM CST 4:45 PM CST
Civil Twilight 6:07 AM CST 5:15 PM CST
Nautical Twilight 5:33 AM CST 5:49 PM CST
Astronomical Twilight 5:00 AM CST 6:22 PM CST
Moon 7:49 AM CST (11/4) 5:48 PM CST (11/4)
Length of Visible Light 11h 08m
Length of Day
10h 08m
New Moon, 2% of the Moon is Illuminated
Nov 4
New Moon
Nov 9
First Quarter
Nov 17
Full
Nov 25
Last Quarter
Dec 2
New

Hourly Weather History & Observations

Time (CST) Temp. Windchill Dew Point Humidity Pressure Visibility Wind Dir Wind Speed Gust Speed Precip Events Conditions
12:15 AM 43.5 °F 37.5 °F 34.2 °F 70% 30.18 in 10.0 mi SSE 11.5 mph 17.3 mph N/A   Clear
12:55 AM 43.7 °F 38.1 °F 34.2 °F 69% 30.18 in 10.0 mi SE 10.4 mph 18.4 mph N/A   Clear
1:15 AM 43.2 °F 37.4 °F 34.2 °F 71% 30.18 in 10.0 mi SSE 10.4 mph - N/A   Clear
1:35 AM 42.8 °F 38.6 °F 34.7 °F 73% 30.18 in 10.0 mi SSE 6.9 mph - N/A   Clear
1:55 AM 43.0 °F 37.7 °F 34.3 °F 72% 30.18 in 10.0 mi SSE 9.2 mph - N/A   Clear
2:15 AM 42.8 °F 37.5 °F 34.3 °F 72% 30.17 in 10.0 mi SSE 9.2 mph - N/A   Clear
2:35 AM 42.8 °F 37.5 °F 34.2 °F 72% 30.17 in 10.0 mi SSE 9.2 mph - N/A   Clear
2:55 AM 43.0 °F 37.7 °F 34.2 °F 71% 30.17 in 10.0 mi SSE 9.2 mph - N/A   Clear
3:15 AM 43.2 °F 37.4 °F 34.2 °F 71% 30.15 in 10.0 mi SE 10.4 mph 17.3 mph N/A   Clear
3:35 AM 43.7 °F 37.3 °F 34.0 °F 69% 30.15 in 10.0 mi SE 12.7 mph 19.6 mph N/A   Clear
3:55 AM 43.9 °F 37.9 °F 33.8 °F 68% 30.14 in 10.0 mi SE 11.5 mph 17.3 mph N/A   Clear
4:15 AM 44.1 °F 38.1 °F 33.8 °F 67% 30.14 in 10.0 mi SSE 11.5 mph - N/A   Clear
4:35 AM 44.2 °F 38.8 °F 33.8 °F 67% 30.14 in 10.0 mi SE 10.4 mph 16.1 mph N/A   Clear
4:55 AM 44.2 °F 39.2 °F 33.8 °F 67% 30.13 in 10.0 mi SSE 9.2 mph - N/A   Clear
5:15 AM 44.6 °F 39.2 °F 33.8 °F 66% 30.13 in 10.0 mi SE 10.4 mph - N/A   Scattered Clouds
5:35 AM 44.8 °F 38.7 °F 33.6 °F 65% 30.12 in 10.0 mi SSE 12.7 mph - N/A   Scattered Clouds
5:55 AM 44.8 °F 39.0 °F 33.8 °F 65% 30.12 in 10.0 mi SSE 11.5 mph - N/A   Clear
6:15 AM 44.8 °F 39.0 °F 33.6 °F 65% 30.11 in 10.0 mi SSE 11.5 mph 18.4 mph N/A   Clear
6:35 AM 45.5 °F 39.6 °F 33.3 °F 62% 30.11 in 10.0 mi SSE 12.7 mph 16.1 mph N/A   Clear
6:55 AM 46.0 °F 39.6 °F 33.4 °F 61% 30.10 in 10.0 mi South 15.0 mph 25.3 mph N/A   Clear
7:15 AM 46.0 °F 39.6 °F 33.6 °F 62% 30.11 in 10.0 mi South 15.0 mph 21.9 mph N/A   Clear
7:35 AM 46.2 °F 40.1 °F 33.8 °F 62% 30.11 in 10.0 mi SSE 13.8 mph 19.6 mph N/A   Clear
7:55 AM 46.6 °F - 34.0 °F 62% 30.11 in 10.0 mi South 15.0 mph 24.2 mph N/A   Clear
8:15 AM 46.6 °F - 34.2 °F 62% 30.10 in 10.0 mi SSE 17.3 mph 23.0 mph N/A   Clear
8:35 AM 47.5 °F - 34.5 °F 61% 30.10 in 10.0 mi South 16.1 mph 27.6 mph N/A   Clear
8:55 AM 47.8 °F - 34.3 °F 60% 30.09 in 10.0 mi SSE 17.3 mph 25.3 mph N/A   Clear
9:15 AM 47.8 °F - 34.5 °F 60% 30.10 in 10.0 mi SSE 19.6 mph 26.5 mph N/A   Clear
9:35 AM 48.2 °F - 34.7 °F 60% 30.10 in 10.0 mi South 13.8 mph 23.0 mph N/A   Clear
9:55 AM 49.1 °F - 35.1 °F 58% 30.10 in 10.0 mi South 13.8 mph 21.9 mph N/A   Clear
10:15 AM 50.7 °F - 35.6 °F 56% 30.09 in 10.0 mi South 15.0 mph 23.0 mph N/A   Clear
10:35 AM 51.4 °F - 35.8 °F 55% 30.09 in 10.0 mi South 17.3 mph 24.2 mph N/A   Clear
10:55 AM 50.9 °F - 35.4 °F 55% 30.09 in 10.0 mi South 17.3 mph 23.0 mph N/A   Scattered Clouds
11:15 AM 50.7 °F - 35.8 °F 57% 30.07 in 10.0 mi South 23.0 mph 28.8 mph N/A   Mostly Cloudy
11:35 AM 50.9 °F - 36.0 °F 57% 30.07 in 10.0 mi South 15.0 mph 23.0 mph N/A   Overcast
11:55 AM 50.9 °F - 36.5 °F 58% 30.07 in 10.0 mi South 15.0 mph 21.9 mph N/A   Overcast
12:15 PM 51.8 °F - 36.9 °F 57% 30.05 in 10.0 mi South 18.4 mph 21.9 mph N/A   Mostly Cloudy
12:35 PM 51.8 °F - 36.9 °F 57% 30.04 in 10.0 mi South 11.5 mph 25.3 mph N/A   Mostly Cloudy
12:55 PM 52.5 °F - 36.3 °F 54% 30.04 in 10.0 mi South 18.4 mph 24.2 mph N/A   Mostly Cloudy
1:15 PM 52.0 °F - 36.5 °F 56% 30.03 in 10.0 mi South 15.0 mph - N/A   Mostly Cloudy
1:35 PM 52.0 °F - 37.2 °F 57% 30.02 in 10.0 mi South 15.0 mph 25.3 mph N/A   Mostly Cloudy
1:55 PM 52.7 °F - 39.9 °F 62% 30.02 in 10.0 mi South 15.0 mph 20.7 mph N/A   Scattered Clouds
2:15 PM 52.0 °F - 38.1 °F 59% 30.02 in 10.0 mi South 16.1 mph 20.7 mph N/A   Mostly Cloudy
2:35 PM 52.9 °F - 38.8 °F 59% 30.02 in 10.0 mi South 11.5 mph 19.6 mph N/A   Overcast
2:55 PM 53.1 °F - 38.7 °F 58% 30.03 in 10.0 mi South 15.0 mph 20.7 mph N/A   Overcast
3:15 PM 52.9 °F - 38.7 °F 58% 30.04 in 10.0 mi SSW 9.2 mph - N/A   Overcast
3:35 PM 53.2 °F - 38.8 °F 58% 30.04 in 10.0 mi SSW 8.1 mph - N/A   Overcast
3:55 PM 53.1 °F - 39.2 °F 59% 30.05 in 10.0 mi SSW 6.9 mph - N/A   Overcast
4:15 PM 52.9 °F - 39.4 °F 60% 30.05 in 10.0 mi SSW 4.6 mph - N/A   Overcast
4:35 PM 53.1 °F - 39.2 °F 59% 30.05 in 10.0 mi SW 4.6 mph - N/A   Overcast
4:55 PM 52.7 °F - 39.4 °F 61% 30.06 in 10.0 mi SSW 4.6 mph - N/A   Overcast
5:15 PM 52.9 °F - 39.2 °F 60% 30.07 in 10.0 mi SSW 5.8 mph - N/A   Overcast
5:35 PM 52.9 °F - 39.4 °F 60% 30.07 in 10.0 mi SW 8.1 mph - N/A   Overcast
5:55 PM 52.7 °F - 39.6 °F 61% 30.08 in 10.0 mi SSW 6.9 mph - N/A   Overcast
6:15 PM 52.9 °F - 40.1 °F 62% 30.08 in 10.0 mi SSW 10.4 mph - N/A   Overcast
6:35 PM 52.7 °F - 40.1 °F 62% 30.09 in 10.0 mi SW 5.8 mph - N/A   Overcast
6:55 PM 52.5 °F - 40.1 °F 63% 30.10 in 10.0 mi SW 4.6 mph - N/A   Overcast
7:15 PM 52.0 °F - 40.3 °F 64% 30.10 in 10.0 mi SW 4.6 mph - N/A   Overcast
7:35 PM 52.0 °F - 40.6 °F 65% 30.10 in 10.0 mi SW 5.8 mph - N/A   Overcast
7:55 PM 52.0 °F - 40.5 °F 65% 30.11 in 10.0 mi SW 5.8 mph - N/A   Overcast
8:15 PM 51.8 °F - 40.8 °F 66% 30.11 in 10.0 mi SW 6.9 mph - N/A   Overcast
8:35 PM 51.8 °F - 41.4 °F 68% 30.12 in 10.0 mi SW 6.9 mph - N/A   Overcast
8:55 PM 51.8 °F - 41.7 °F 68% 30.13 in 10.0 mi SW 6.9 mph - N/A   Overcast
9:15 PM 51.4 °F - 41.9 °F 70% 30.13 in 10.0 mi SW 4.6 mph - N/A   Overcast
9:35 PM 51.3 °F - 43.3 °F 74% 30.14 in 10.0 mi SW 11.5 mph - N/A   Overcast
9:55 PM 50.2 °F - 44.6 °F 81% 30.14 in 10.0 mi SSW 8.1 mph - N/A   Overcast
10:15 PM 50.0 °F - 46.2 °F 87% 30.14 in 10.0 mi SW 6.9 mph - N/A   Overcast
10:35 PM 50.0 °F - 46.8 °F 89% 30.14 in 10.0 mi SW 8.1 mph - N/A   Overcast
10:55 PM 50.0 °F - 46.8 °F 89% 30.14 in 10.0 mi SW 6.9 mph - N/A   Overcast
11:15 PM 50.4 °F - 46.6 °F 87% 30.14 in 10.0 mi SW 5.8 mph - N/A   Overcast
11:35 PM 50.5 °F - 46.0 °F 85% 30.15 in 10.0 mi SW 5.8 mph - N/A   Overcast
11:55 PM 50.9 °F - 45.5 °F 82% 30.15 in 10.0 mi SW 5.8 mph - N/A   Overcast